Time;durP1;ratioP1;P1;durP2;ratioP2;P2;SDS_P1;SDS_P2;PMS_P1;PMS_P2;Temp;Humidity;BMP_temperature;BMP_pressure;BME280_temperature;BME280_humidity;BME280_pressure;Samples;Min_cycle;Max_cycle;Signal;HPM_P1;HPM_P2
2022/08/03 00:00:06;;;;;;;1.65;0.77;;;26.50;53.10;;;;;;5010559;28;20037;-56
2022/08/03 00:02:38;;;;;;;2.10;0.80;;;26.50;53.10;;;;;;5010311;28;20065;-57
2022/08/03 00:05:07;;;;;;;3.35;0.93;;;26.50;53.10;;;;;;5010600;28;20049;-55
2022/08/03 00:07:33;;;;;;;3.10;1.08;;;26.50;53.10;;;;;;5010844;28;20038;-55
2022/08/03 00:09:59;;;;;;;3.70;1.00;;;26.50;53.20;;;;;;5010417;28;20484;-54
2022/08/03 00:12:24;;;;;;;3.03;1.10;;;26.50;53.20;;;;;;5006705;28;20056;-56
2022/08/03 00:14:50;;;;;;;2.53;1.00;;;26.40;53.10;;;;;;5010809;28;20044;-55
2022/08/03 00:17:16;;;;;;;2.30;0.70;;;26.50;53.20;;;;;;5009705;28;20037;-57
2022/08/03 00:19:42;;;;;;;3.13;0.90;;;26.50;53.20;;;;;;5009946;28;20108;-56
2022/08/03 00:22:07;;;;;;;3.15;1.20;;;26.50;53.30;;;;;;5009774;28;20437;-56
2022/08/03 00:24:35;;;;;;;2.35;0.90;;;26.40;53.20;;;;;;5010174;28;20063;-54
2022/08/03 00:27:01;;;;;;;3.17;0.85;;;26.50;53.30;;;;;;5009927;28;20437;-51
2022/08/03 00:29:26;;;;;;;1.40;0.73;;;26.50;53.30;;;;;;5008423;28;20034;-56
2022/08/03 00:31:52;;;;;;;1.95;0.70;;;26.40;53.20;;;;;;5010346;28;20026;-57
2022/08/03 00:34:18;;;;;;;2.50;0.93;;;26.40;53.20;;;;;;5010397;28;20361;-54
2022/08/03 00:36:44;;;;;;;1.88;0.90;;;26.40;53.20;;;;;;5013593;28;20053;-56
2022/08/03 00:39:10;;;;;;;2.03;0.95;;;26.40;53.20;;;;;;5013571;28;20421;-54
2022/08/03 00:41:36;;;;;;;2.90;0.85;;;26.40;53.20;;;;;;5013630;28;20440;-54
2022/08/03 00:44:02;;;;;;;1.95;0.95;;;26.40;53.30;;;;;;5013916;28;20357;-54
2022/08/03 00:46:27;;;;;;;2.63;1.00;;;26.40;53.30;;;;;;5014325;28;20018;-54
2022/08/03 00:48:53;;;;;;;2.15;0.80;;;26.40;53.30;;;;;;5013224;28;20327;-56
2022/08/03 00:51:20;;;;;;;3.05;0.80;;;26.40;53.30;;;;;;5012937;28;20041;-56
2022/08/03 00:53:46;;;;;;;3.42;0.88;;;26.40;53.30;;;;;;5013136;28;20109;-55
2022/08/03 00:56:14;;;;;;;2.42;0.80;;;26.40;53.30;;;;;;5012776;28;20384;-57
2022/08/03 00:58:40;;;;;;;2.88;1.00;;;26.40;53.30;;;;;;5013330;28;20041;-56
2022/08/03 01:01:06;;;;;;;2.00;0.70;;;26.40;53.30;;;;;;5012482;28;20037;-56
2022/08/03 01:03:32;;;;;;;2.30;0.88;;;26.40;53.30;;;;;;5013218;28;20033;-56
2022/08/03 01:06:11;;;;;;;2.88;0.88;;;26.40;53.40;;;;;;5012986;28;20113;-57
2022/08/03 01:08:45;;;;;;;4.03;0.98;;;26.40;53.40;;;;;;5011466;28;20129;-55
2022/08/03 01:11:44;;;;;;;3.85;1.10;;;26.30;53.30;;;;;;5013153;28;20032;-54
2022/08/03 01:14:23;;;;;;;2.08;0.85;;;26.40;53.40;;;;;;5012423;28;20472;-56
2022/08/03 01:16:58;;;;;;;1.23;0.70;;;26.40;53.40;;;;;;5012419;28;20429;-58
2022/08/03 01:19:41;;;;;;;2.30;0.70;;;26.30;53.40;;;;;;5012007;28;20033;-53
2022/08/03 01:22:22;;;;;;;1.50;0.60;;;26.30;53.40;;;;;;5013628;28;20441;-56
2022/08/03 01:24:57;;;;;;;4.25;1.40;;;26.30;53.40;;;;;;5012200;28;20026;-56
2022/08/03 01:28:04;;;;;;;2.42;0.90;;;26.30;53.40;;;;;;5011494;28;20420;-53
2022/08/03 01:30:34;;;;;;;2.13;0.60;;;26.30;53.40;;;;;;5010192;28;20091;-54
2022/08/03 01:33:04;;;;;;;3.03;0.70;;;26.30;53.40;;;;;;5011618;28;20034;-56
2022/08/03 01:35:47;;;;;;;4.72;1.25;;;26.30;53.50;;;;;;5010260;28;20034;-57
2022/08/03 01:38:19;;;;;;;3.08;1.02;;;26.30;53.50;;;;;;5011284;28;20022;-55
2022/08/03 01:40:46;;;;;;;2.20;0.77;;;26.30;53.50;;;;;;5012231;28;20030;-55
2022/08/03 01:43:17;;;;;;;3.03;1.23;;;26.30;53.60;;;;;;5007610;28;20096;-58
2022/08/03 01:45:43;;;;;;;2.20;0.80;;;26.30;53.60;;;;;;5012662;28;20034;-58
2022/08/03 01:48:11;;;;;;;2.47;0.80;;;26.30;53.60;;;;;;5012606;28;20045;-57
2022/08/03 01:50:38;;;;;;;2.17;1.02;;;26.30;53.60;;;;;;5013300;28;20034;-54
2022/08/03 01:53:06;;;;;;;1.67;0.80;;;26.30;53.60;;;;;;5012177;28;20045;-58
2022/08/03 01:55:35;;;;;;;1.92;0.88;;;26.30;53.50;;;;;;5011400;28;20050;-57
2022/08/03 01:58:02;;;;;;;3.03;1.00;;;26.30;53.60;;;;;;5011555;28;20026;-56
2022/08/03 02:00:29;;;;;;;1.33;0.70;;;26.30;53.60;;;;;;5014696;28;20034;-53
2022/08/03 02:02:56;;;;;;;2.88;0.70;;;26.30;53.60;;;;;;5011015;28;20037;-56
2022/08/03 02:05:23;;;;;;;2.28;1.00;;;26.30;53.60;;;;;;5010843;28;20468;-55
2022/08/03 02:07:50;;;;;;;1.45;0.60;;;26.30;53.60;;;;;;5011757;28;20453;-56
2022/08/03 02:10:19;;;;;;;3.60;1.10;;;26.30;53.60;;;;;;5011548;28;20034;-57
2022/08/03 02:12:47;;;;;;;2.70;1.02;;;26.30;53.60;;;;;;5012159;28;20057;-56
2022/08/03 02:15:15;;;;;;;4.75;0.95;;;26.30;53.60;;;;;;5012687;28;20423;-56
2022/08/03 02:17:44;;;;;;;2.55;0.85;;;26.30;53.60;;;;;;5011542;28;20034;-56
2022/08/03 02:20:12;;;;;;;2.60;1.00;;;26.20;53.60;;;;;;5010252;28;20021;-55
2022/08/03 02:22:39;;;;;;;1.77;0.63;;;26.20;53.60;;;;;;5011400;28;20111;-58
2022/08/03 02:25:08;;;;;;;2.15;0.80;;;26.20;53.60;;;;;;5011044;28;20773;-53
2022/08/03 02:27:37;;;;;;;3.50;0.88;;;26.20;53.70;;;;;;5011994;28;20048;-54
2022/08/03 02:30:08;;;;;;;3.05;0.90;;;26.20;53.70;;;;;;5012523;28;20030;-54
2022/08/03 02:32:37;;;;;;;1.20;0.70;;;26.20;53.70;;;;;;5007870;28;20056;-54
2022/08/03 02:35:08;;;;;;;1.10;0.70;;;26.20;53.70;;;;;;5011355;28;20065;-53
2022/08/03 02:37:40;;;;;;;1.08;0.70;;;26.20;53.70;;;;;;5010202;28;20034;-55
2022/08/03 02:40:08;;;;;;;2.25;0.90;;;26.20;53.70;;;;;;5010738;28;20042;-52
2022/08/03 02:42:37;;;;;;;2.30;0.60;;;26.20;53.70;;;;;;5011225;28;20539;-60
2022/08/03 02:45:09;;;;;;;1.95;0.82;;;26.20;53.70;;;;;;5011687;28;20026;-56
2022/08/03 02:47:36;;;;;;;1.88;0.90;;;26.20;53.80;;;;;;5011951;28;21523;-57
2022/08/03 02:50:03;;;;;;;2.60;1.00;;;26.20;53.80;;;;;;5010462;28;20509;-55
2022/08/03 02:52:32;;;;;;;2.15;0.77;;;26.20;53.80;;;;;;5012058;28;20033;-55
2022/08/03 02:55:01;;;;;;;2.03;0.65;;;26.20;53.80;;;;;;5011360;28;20453;-56
2022/08/03 02:57:28;;;;;;;2.03;0.93;;;26.20;53.80;;;;;;5008064;28;20049;-52
2022/08/03 02:59:56;;;;;;;3.33;1.13;;;26.20;53.80;;;;;;5011111;28;20048;-53
2022/08/03 03:02:23;;;;;;;2.42;0.75;;;26.20;53.90;;;;;;5009807;28;20415;-55
2022/08/03 03:04:52;;;;;;;2.75;0.90;;;26.20;53.90;;;;;;5010414;28;20054;-55
2022/08/03 03:07:19;;;;;;;1.77;0.80;;;26.20;53.90;;;;;;5010894;28;20029;-55
2022/08/03 03:09:45;;;;;;;2.30;1.00;;;26.20;53.90;;;;;;5009829;28;20050;-55
2022/08/03 03:12:13;;;;;;;2.17;0.93;;;26.20;53.90;;;;;;5010975;28;20037;-55
2022/08/03 03:14:39;;;;;;;2.72;1.00;;;26.20;53.90;;;;;;5009965;28;20099;-58
2022/08/03 03:17:10;;;;;;;1.15;0.70;;;26.20;54.00;;;;;;5011933;28;20079;-57
2022/08/03 03:19:37;;;;;;;2.72;0.90;;;26.20;54.00;;;;;;5010185;28;20033;-56
2022/08/03 03:22:05;;;;;;;4.00;1.00;;;26.10;53.90;;;;;;5011147;28;20029;-54
2022/08/03 03:24:32;;;;;;;2.90;0.90;;;26.10;53.90;;;;;;5010708;28;20353;-53
2022/08/03 03:26:58;;;;;;;2.10;1.02;;;26.10;53.90;;;;;;5010762;28;20040;-58
2022/08/03 03:29:24;;;;;;;1.48;0.80;;;26.10;53.90;;;;;;5010667;28;20120;-53
2022/08/03 03:31:50;;;;;;;2.70;0.80;;;26.10;54.00;;;;;;5010805;28;20323;-53
2022/08/03 03:34:17;;;;;;;2.40;0.80;;;26.10;54.00;;;;;;5008344;28;20026;-56
2022/08/03 03:36:43;;;;;;;2.95;0.90;;;26.20;54.10;;;;;;5010364;28;20026;-55
2022/08/03 03:39:09;;;;;;;1.80;0.88;;;26.10;54.00;;;;;;5010103;28;21624;-54
2022/08/03 03:41:35;;;;;;;2.05;0.95;;;26.10;54.00;;;;;;5011832;28;20088;-56
2022/08/03 03:44:01;;;;;;;2.47;0.93;;;26.10;54.10;;;;;;5009810;28;20041;-57
2022/08/03 03:46:27;;;;;;;1.67;0.65;;;26.10;54.10;;;;;;5008348;28;20121;-58
2022/08/03 03:48:53;;;;;;;2.92;0.98;;;26.10;54.10;;;;;;5007097;28;20104;-58
2022/08/03 03:51:19;;;;;;;2.55;0.85;;;26.10;54.10;;;;;;5009796;28;20037;-54
2022/08/03 03:54:00;;;;;;;2.60;0.90;;;26.10;54.10;;;;;;5010208;28;20111;-56
2022/08/03 03:56:26;;;;;;;3.03;1.20;;;26.10;54.10;;;;;;5010798;28;20061;-55
2022/08/03 03:58:52;;;;;;;2.88;0.88;;;26.10;54.20;;;;;;5009480;28;20034;-54
2022/08/03 04:01:18;;;;;;;2.78;1.08;;;26.10;54.20;;;;;;5009892;28;20465;-57
2022/08/03 04:03:44;;;;;;;3.13;1.08;;;26.10;54.20;;;;;;5009558;28;20036;-59
2022/08/03 04:11:35;;;;;;;2.30;1.00;;;26.00;54.20;;;;;;5012751;28;20030;-56
2022/08/03 04:14:15;;;;;;;3.30;1.00;;;26.00;54.20;;;;;;5013661;28;20030;-57
2022/08/03 04:16:45;;;;;;;2.38;0.80;;;26.10;54.30;;;;;;5013478;28;20044;-55
2022/08/03 04:19:28;;;;;;;4.47;1.17;;;26.10;54.30;;;;;;5010801;28;20026;-56
2022/08/03 04:21:59;;;;;;;3.83;1.10;;;26.00;54.30;;;;;;5012286;28;20057;-57
2022/08/03 04:24:31;;;;;;;2.22;0.80;;;26.00;54.30;;;;;;5013982;28;20120;-56
2022/08/03 04:26:59;;;;;;;2.72;1.00;;;26.00;54.40;;;;;;5014346;28;20026;-57
2022/08/03 04:29:27;;;;;;;3.08;0.90;;;26.00;54.40;;;;;;5013875;28;20512;-55
2022/08/03 04:31:55;;;;;;;2.28;1.02;;;26.00;54.40;;;;;;5014098;28;20026;-56
2022/08/03 04:34:21;;;;;;;2.00;0.90;;;26.10;54.40;;;;;;5012734;28;20048;-57
2022/08/03 04:36:51;;;;;;;3.28;0.80;;;26.00;54.40;;;;;;5013359;28;20030;-56
2022/08/03 04:39:24;;;;;;;3.90;1.25;;;26.10;54.50;;;;;;5013576;28;20524;-55
2022/08/03 04:41:54;;;;;;;2.58;1.10;;;26.10;54.50;;;;;;5013507;28;20045;-57
2022/08/03 04:44:23;;;;;;;3.33;0.90;;;26.10;54.50;;;;;;5013730;28;20455;-54
2022/08/03 04:46:50;;;;;;;3.35;1.63;;;26.10;54.50;;;;;;5012517;28;20080;-57
2022/08/03 04:49:17;;;;;;;1.00;0.75;;;26.10;54.50;;;;;;5013543;28;20092;-58
2022/08/03 04:51:43;;;;;;;3.15;1.20;;;26.10;54.50;;;;;;5013969;28;20033;-57
2022/08/03 04:54:12;;;;;;;2.40;0.88;;;26.10;54.50;;;;;;5013606;28;20049;-56
2022/08/03 04:56:42;;;;;;;3.80;1.00;;;26.10;54.50;;;;;;5013442;28;20117;-58
2022/08/03 04:59:09;;;;;;;1.40;0.77;;;26.10;54.50;;;;;;5010678;28;20088;-58
2022/08/03 05:01:35;;;;;;;2.47;1.15;;;26.10;54.50;;;;;;5011840;28;20493;-56
2022/08/03 05:04:01;;;;;;;2.63;0.80;;;26.10;54.50;;;;;;5012774;28;20030;-56
2022/08/03 05:06:27;;;;;;;2.78;1.00;;;26.10;54.50;;;;;;5012400;28;20084;-57
2022/08/03 05:08:53;;;;;;;3.00;1.05;;;26.10;54.50;;;;;;5028262;28;20053;-52
2022/08/03 05:11:20;;;;;;;2.47;1.00;;;26.20;54.60;;;;;;5013648;28;20038;-55
2022/08/03 05:13:46;;;;;;;2.17;1.10;;;26.10;54.50;;;;;;5013117;28;20469;-55
2022/08/03 05:16:13;;;;;;;2.38;1.00;;;26.10;54.50;;;;;;5012655;28;21631;-55
2022/08/03 05:18:40;;;;;;;2.75;1.00;;;26.10;54.50;;;;;;5011782;28;20026;-55
2022/08/03 05:21:06;;;;;;;2.92;1.20;;;26.10;54.50;;;;;;5013122;28;20044;-55
2022/08/03 05:23:32;;;;;;;2.88;0.98;;;26.20;54.60;;;;;;5011913;28;20036;-51
2022/08/03 05:25:58;;;;;;;4.03;1.10;;;26.20;54.50;;;;;;5012814;28;20026;-56
2022/08/03 05:28:23;;;;;;;3.38;1.33;;;26.20;54.50;;;;;;5011856;28;20069;-58
2022/08/03 05:30:49;;;;;;;2.42;0.90;;;26.20;54.50;;;;;;5012906;28;20338;-54
2022/08/03 05:33:15;;;;;;;2.38;1.00;;;26.20;54.50;;;;;;5013103;28;20404;-55
2022/08/03 05:35:41;;;;;;;3.30;1.20;;;26.20;54.40;;;;;;5012952;28;20037;-55
2022/08/03 05:38:07;;;;;;;3.33;1.40;;;26.20;54.40;;;;;;5012171;28;20389;-54
2022/08/03 05:40:32;;;;;;;3.90;1.30;;;26.20;54.40;;;;;;5013442;28;20472;-56
2022/08/03 05:42:58;;;;;;;4.25;1.10;;;26.20;54.40;;;;;;5011831;28;20060;-53
2022/08/03 05:45:24;;;;;;;3.15;1.40;;;26.20;54.40;;;;;;5011920;28;20048;-57
2022/08/03 05:47:50;;;;;;;3.72;1.35;;;26.20;55.00;;;;;;5011440;28;20492;-56
2022/08/03 05:50:18;;;;;;;3.40;1.30;;;26.20;54.30;;;;;;5012852;28;20026;-58
2022/08/03 05:52:44;;;;;;;1.77;1.15;;;26.20;54.30;;;;;;5013595;28;20041;-58
2022/08/03 05:55:12;;;;;;;2.20;1.00;;;26.20;54.30;;;;;;5013145;28;20044;-58
2022/08/03 05:57:39;;;;;;;3.92;1.55;;;26.20;54.30;;;;;;5010826;28;20026;-58
2022/08/03 06:00:10;;;;;;;2.65;1.08;;;26.20;54.20;;;;;;5010906;28;20037;-55
2022/08/03 06:02:38;;;;;;;3.78;1.10;;;26.20;54.20;;;;;;5011720;28;20028;-57
2022/08/03 06:05:05;;;;;;;2.40;1.00;;;26.20;54.20;;;;;;5012057;28;20029;-55
2022/08/03 06:07:31;;;;;;;3.38;1.17;;;26.20;54.80;;;;;;5011789;28;20044;-56
2022/08/03 06:09:57;;;;;;;3.70;1.30;;;26.20;54.20;;;;;;5011553;28;20064;-58
2022/08/03 06:12:23;;;;;;;2.38;0.98;;;26.20;54.20;;;;;;5011268;28;20025;-54
2022/08/03 06:14:49;;;;;;;2.78;1.10;;;26.20;54.20;;;;;;5009360;28;20030;-57
2022/08/03 06:17:15;;;;;;;2.47;0.90;;;26.20;54.20;;;;;;5011770;28;20029;-57
2022/08/03 06:19:41;;;;;;;1.95;1.02;;;26.20;54.30;;;;;;5011737;28;20029;-56
2022/08/03 06:22:06;;;;;;;2.88;0.93;;;26.20;54.10;;;;;;5011764;28;20088;-56
2022/08/03 06:24:32;;;;;;;2.92;1.27;;;26.20;54.00;;;;;;5011764;28;20022;-57
2022/08/03 06:26:58;;;;;;;2.97;1.10;;;26.20;54.00;;;;;;5011688;28;20355;-56
2022/08/03 06:29:25;;;;;;;6.05;1.25;;;26.20;54.00;;;;;;5013344;28;20130;-55
2022/08/03 06:31:57;;;;;;;2.50;1.10;;;26.20;54.10;;;;;;5014586;28;20084;-55
2022/08/03 06:34:24;;;;;;;5.40;1.42;;;26.30;54.10;;;;;;5014944;28;20449;-58
2022/08/03 06:36:54;;;;;;;3.70;1.10;;;26.30;54.00;;;;;;5015558;28;20021;-56
2022/08/03 06:39:21;;;;;;;3.42;1.10;;;26.30;54.00;;;;;;5015805;28;20340;-56
2022/08/03 06:41:47;;;;;;;2.58;1.30;;;26.30;54.00;;;;;;5015687;28;20329;-58
2022/08/03 06:44:14;;;;;;;3.65;1.23;;;26.30;54.00;;;;;;5014792;28;20037;-59
2022/08/03 06:46:43;;;;;;;6.13;1.45;;;26.30;54.00;;;;;;5014094;28;20025;-58
2022/08/03 06:49:10;;;;;;;4.78;1.67;;;26.30;54.00;;;;;;5015953;28;20029;-58
2022/08/03 06:51:36;;;;;;;4.50;1.80;;;26.20;53.90;;;;;;5015914;28;20131;-52
2022/08/03 06:54:09;;;;;;;5.78;1.90;;;26.20;53.90;;;;;;4857993;27;5612704;-53
2022/08/03 06:56:36;;;;;;;4.30;1.80;;;26.20;53.90;;;;;;5031702;28;20113;-57
2022/08/03 06:59:02;;;;;;;4.53;1.50;;;26.20;53.90;;;;;;5027451;28;20080;-56
2022/08/03 07:01:28;;;;;;;5.72;2.00;;;26.20;54.00;;;;;;5031524;28;20030;-54
2022/08/03 07:03:55;;;;;;;5.60;2.03;;;26.20;53.90;;;;;;5031699;28;20032;-55
2022/08/03 07:06:21;;;;;;;4.72;1.92;;;26.30;54.00;;;;;;5031780;28;20494;-56
2022/08/03 07:08:47;;;;;;;6.35;1.63;;;26.20;54.00;;;;;;5032147;28;20029;-59
2022/08/03 07:11:13;;;;;;;5.68;1.83;;;26.20;53.90;;;;;;5032653;28;20337;-57
2022/08/03 07:13:40;;;;;;;9.30;1.98;;;26.20;54.00;;;;;;5031316;28;20038;-55
2022/08/03 07:16:06;;;;;;;3.90;1.80;;;26.20;54.00;;;;;;5031792;28;20033;-57
2022/08/03 07:18:32;;;;;;;3.60;1.77;;;26.20;54.00;;;;;;5031456;28;20456;-58
2022/08/03 07:20:59;;;;;;;4.82;1.63;;;26.20;54.00;;;;;;5031883;28;20445;-55
2022/08/03 07:23:25;;;;;;;5.32;1.80;;;26.30;54.00;;;;;;5030604;28;20361;-55
2022/08/03 07:25:57;;;;;;;6.05;1.70;;;26.30;54.00;;;;;;5031810;28;20017;-55
2022/08/03 07:28:23;;;;;;;6.10;2.03;;;26.30;54.00;;;;;;5031449;28;20033;-54
2022/08/03 07:30:49;;;;;;;3.70;1.42;;;26.30;53.90;;;;;;5031288;28;20057;-52
2022/08/03 07:33:15;;;;;;;4.20;1.63;;;26.30;53.90;;;;;;5031061;28;20068;-57
2022/08/03 07:35:44;;;;;;;5.22;1.67;;;26.30;53.90;;;;;;5031517;28;20109;-55
2022/08/03 07:38:13;;;;;;;4.10;1.83;;;26.30;53.90;;;;;;5029541;28;20034;-53
2022/08/03 07:40:42;;;;;;;5.05;1.77;;;26.30;53.90;;;;;;5031608;28;20077;-58
2022/08/03 07:43:11;;;;;;;3.65;1.50;;;26.30;53.90;;;;;;5025616;28;20026;-55
2022/08/03 07:45:40;;;;;;;4.68;1.92;;;26.20;53.80;;;;;;5029795;28;20036;-54
2022/08/03 07:48:09;;;;;;;7.80;2.25;;;26.30;53.90;;;;;;5030990;28;20120;-49
2022/08/03 07:50:38;;;;;;;6.25;1.77;;;26.20;53.90;;;;;;5030566;28;20095;-57
2022/08/03 07:53:09;;;;;;;5.45;1.90;;;26.20;53.90;;;;;;5040450;28;20045;-54
2022/08/03 07:55:38;;;;;;;3.80;1.77;;;26.20;53.90;;;;;;5048500;28;20032;-55
2022/08/03 07:58:11;;;;;;;5.10;1.40;;;26.20;53.90;;;;;;5050348;28;20033;-54
2022/08/03 08:00:42;;;;;;;4.25;1.50;;;26.20;53.90;;;;;;5048888;28;20048;-52
2022/08/03 08:03:12;;;;;;;6.68;1.67;;;26.20;53.90;;;;;;5048369;28;20475;-57
2022/08/03 08:05:39;;;;;;;3.47;1.45;;;26.20;54.00;;;;;;5036621;28;20445;-54
2022/08/03 08:08:06;;;;;;;5.05;1.55;;;26.20;54.00;;;;;;5037048;28;20029;-56
2022/08/03 08:10:32;;;;;;;3.72;1.40;;;26.20;54.00;;;;;;5037906;28;20330;-57
2022/08/03 08:12:59;;;;;;;6.03;1.73;;;26.20;53.90;;;;;;5037608;28;20041;-54
2022/08/03 08:15:25;;;;;;;3.67;1.65;;;26.20;53.90;;;;;;5032150;28;20092;-56
2022/08/03 08:17:54;;;;;;;3.72;1.25;;;26.20;53.90;;;;;;5037615;28;20033;-57
2022/08/03 08:20:27;;;;;;;4.32;1.65;;;26.20;53.80;;;;;;5036195;28;20345;-57
2022/08/03 08:22:56;;;;;;;4.00;1.27;;;26.30;53.80;;;;;;5035447;28;20021;-56
2022/08/03 08:25:22;;;;;;;4.65;1.65;;;26.20;53.80;;;;;;5037327;28;20112;-55
2022/08/03 08:27:49;;;;;;;3.75;1.98;;;26.30;53.80;;;;;;5037046;28;20132;-57
2022/08/03 08:30:17;;;;;;;4.63;1.30;;;26.30;53.70;;;;;;5036436;28;20037;-56
2022/08/03 08:32:44;;;;;;;3.70;1.35;;;26.20;53.60;;;;;;5036792;28;20432;-58
2022/08/03 08:35:10;;;;;;;3.95;1.42;;;26.30;53.60;;;;;;5034645;28;20056;-58
2022/08/03 08:37:37;;;;;;;2.35;1.17;;;26.30;53.60;;;;;;5037666;28;20040;-56
2022/08/03 08:40:04;;;;;;;3.70;1.30;;;26.30;53.60;;;;;;5037107;28;20025;-56
2022/08/03 08:42:31;;;;;;;2.35;1.30;;;26.30;53.50;;;;;;5036704;28;20442;-57
2022/08/03 08:44:58;;;;;;;5.05;1.55;;;26.20;53.40;;;;;;5036764;28;20084;-55
2022/08/03 08:47:28;;;;;;;6.68;1.58;;;26.30;53.40;;;;;;5037043;28;20038;-55
2022/08/03 08:49:56;;;;;;;6.18;1.50;;;26.30;53.40;;;;;;5035406;28;20025;-51
2022/08/03 08:52:25;;;;;;;4.22;1.30;;;26.30;53.40;;;;;;5036917;28;20155;-56
2022/08/03 08:55:08;;;;;;;4.05;1.48;;;26.30;53.30;;;;;;5037098;28;20040;-55
2022/08/03 08:57:36;;;;;;;5.57;1.52;;;26.30;53.30;;;;;;5036879;28;20101;-54
2022/08/03 09:00:07;;;;;;;4.45;1.67;;;26.30;53.20;;;;;;5019102;28;20033;-53
2022/08/03 09:02:34;;;;;;;3.72;1.40;;;26.30;53.20;;;;;;5036761;28;20057;-57
2022/08/03 09:05:00;;;;;;;3.58;1.40;;;26.30;53.10;;;;;;5035515;28;20029;-54
2022/08/03 09:07:27;;;;;;;4.45;1.50;;;26.30;53.10;;;;;;5036299;28;20061;-57
2022/08/03 09:09:53;;;;;;;3.38;1.30;;;26.30;53.10;;;;;;5036834;28;20026;-55
2022/08/03 09:12:19;;;;;;;3.97;1.30;;;26.30;53.00;;;;;;5036327;28;20029;-55
2022/08/03 09:14:45;;;;;;;3.03;1.10;;;26.30;53.00;;;;;;5036841;28;20436;-51
2022/08/03 09:17:11;;;;;;;4.05;1.40;;;26.30;53.00;;;;;;5035094;28;20037;-56
2022/08/03 09:19:37;;;;;;;3.78;1.25;;;26.30;52.90;;;;;;5033277;28;20108;-61
2022/08/03 09:22:13;;;;;;;5.35;1.40;;;26.30;52.90;;;;;;5032814;28;20342;-55
2022/08/03 09:25:00;;;;;;;6.35;1.50;;;26.30;52.90;;;;;;5035587;28;20314;-56
2022/08/03 09:27:25;;;;;;;5.13;1.10;;;26.30;52.90;;;;;;5033450;28;20365;-56
2022/08/03 09:29:53;;;;;;;4.57;1.30;;;26.30;52.90;;;;;;5035613;28;20029;-55
2022/08/03 09:32:23;;;;;;;3.55;1.48;;;26.30;53.00;;;;;;5033685;28;20112;-56
2022/08/03 09:34:51;;;;;;;3.60;1.35;;;26.30;53.00;;;;;;5034322;28;20029;-56
2022/08/03 09:37:19;;;;;;;9.98;1.30;;;26.30;53.00;;;;;;5034587;28;20349;-51
2022/08/03 09:39:46;;;;;;;4.28;1.55;;;26.30;53.00;;;;;;5034902;28;20025;-58
2022/08/03 09:42:14;;;;;;;4.22;1.27;;;26.30;53.10;;;;;;5035788;28;20411;-59
2022/08/03 09:44:44;;;;;;;3.65;1.35;;;26.30;53.00;;;;;;5033010;28;20029;-55
2022/08/03 09:47:11;;;;;;;4.38;1.35;;;26.30;52.90;;;;;;5034000;28;20032;-58
2022/08/03 09:49:40;;;;;;;6.25;1.40;;;26.40;52.90;;;;;;5035831;28;20033;-57
2022/08/03 09:52:17;;;;;;;4.75;1.48;;;26.40;53.50;;;;;;5033731;28;20045;-55
2022/08/03 09:54:49;;;;;;;5.13;1.45;;;26.40;52.80;;;;;;5035004;28;20475;-58
2022/08/03 09:57:26;;;;;;;3.95;1.10;;;26.40;52.70;;;;;;5035038;28;20106;-57
2022/08/03 09:59:57;;;;;;;6.18;1.13;;;26.40;52.60;;;;;;5034704;28;20032;-56
2022/08/03 10:02:26;;;;;;;5.57;1.60;;;26.50;52.70;;;;;;5034598;28;20128;-56
2022/08/03 10:04:53;;;;;;;3.55;1.17;;;26.40;52.50;;;;;;5020736;28;20021;-56
2022/08/03 10:07:21;;;;;;;3.58;1.48;;;26.50;52.60;;;;;;5035476;28;20464;-56
2022/08/03 10:09:58;;;;;;;5.13;1.48;;;26.50;52.50;;;;;;5035396;28;20044;-57
2022/08/03 10:12:24;;;;;;;4.50;1.60;;;26.50;52.50;;;;;;5035345;28;20116;-55
2022/08/03 10:14:51;;;;;;;4.97;1.70;;;26.50;52.40;;;;;;5032611;28;20056;-59
2022/08/03 10:17:18;;;;;;;3.03;1.30;;;26.50;52.50;;;;;;5034232;28;20403;-59
2022/08/03 10:19:44;;;;;;;3.65;1.15;;;26.60;52.50;;;;;;5035602;28;20137;-55
2022/08/03 10:22:13;;;;;;;3.55;1.33;;;26.60;52.40;;;;;;5033510;28;20112;-57
2022/08/03 10:24:48;;;;;;;3.63;1.20;;;26.60;52.30;;;;;;5032656;28;20064;-54
2022/08/03 10:27:15;;;;;;;6.20;1.27;;;26.60;52.30;;;;;;5030617;28;20033;-57
2022/08/03 10:29:50;;;;;;;3.90;1.38;;;26.60;52.20;;;;;;5034784;28;20045;-58
2022/08/03 10:32:27;;;;;;;3.95;1.40;;;26.60;52.20;;;;;;5035221;28;20040;-54
2022/08/03 10:35:02;;;;;;;7.75;1.38;;;26.60;52.30;;;;;;5034253;28;20034;-58
2022/08/03 10:37:30;;;;;;;5.43;1.52;;;26.60;52.30;;;;;;5032133;28;20551;-56
2022/08/03 10:39:58;;;;;;;3.50;1.25;;;26.60;52.40;;;;;;5023539;28;20444;-58
2022/08/03 10:42:27;;;;;;;5.20;1.38;;;26.60;52.40;;;;;;5034817;28;20025;-55
2022/08/03 10:45:04;;;;;;;6.88;1.35;;;26.60;52.40;;;;;;5042637;28;20357;-57
2022/08/03 10:47:32;;;;;;;5.03;1.52;;;26.60;52.40;;;;;;5023221;28;20036;-51
2022/08/03 10:49:59;;;;;;;6.30;1.55;;;26.60;52.30;;;;;;5030105;28;20041;-56
2022/08/03 10:52:25;;;;;;;4.75;1.15;;;26.60;52.20;;;;;;5033032;28;20364;-56
2022/08/03 10:57:52;;;;;;;4.03;1.50;;;26.60;52.20;;;;;;5030592;28;20037;-53
2022/08/03 11:00:28;;;;;;;4.45;1.33;;;26.60;52.20;;;;;;5032132;28;21653;-51
2022/08/03 11:03:13;;;;;;;5.38;1.60;;;26.60;52.20;;;;;;5025697;28;20025;-55
2022/08/03 11:05:42;;;;;;;5.68;1.50;;;26.60;52.10;;;;;;5031075;28;20022;-56
2022/08/03 11:08:31;;;;;;;6.05;1.50;;;26.60;52.10;;;;;;5014004;28;20083;-54
2022/08/03 11:11:00;;;;;;;4.13;1.38;;;26.60;52.10;;;;;;5034334;28;20093;-56
2022/08/03 11:13:32;;;;;;;5.35;1.50;;;26.60;52.10;;;;;;5030574;28;20426;-60
2022/08/03 11:16:00;;;;;;;3.13;1.25;;;26.60;52.00;;;;;;5033699;28;20117;-63
2022/08/03 11:18:26;;;;;;;3.45;1.38;;;26.60;52.00;;;;;;5022149;28;20037;-60
2022/08/03 11:20:59;;;;;;;4.40;1.60;;;26.60;52.00;;;;;;5024451;28;20095;-60
2022/08/03 11:23:45;;;;;;;3.88;1.30;;;26.70;52.10;;;;;;5025014;28;20052;-62
2022/08/03 11:26:21;;;;;;;5.03;1.60;;;26.70;52.00;;;;;;5034426;28;20030;-61
2022/08/03 11:28:47;;;;;;;7.30;1.50;;;26.80;52.50;;;;;;5033026;28;20072;-63
2022/08/03 11:31:25;;;;;;;11.05;2.10;;;26.80;51.80;;;;;;5032950;28;20040;-63
2022/08/03 11:34:05;;;;;;;3.67;0.93;;;27.00;51.70;;;;;;5033822;28;20132;-62
2022/08/03 11:37:09;;;;;;;6.78;1.35;;;27.10;51.60;;;;;;5033547;28;20021;-61
2022/08/03 11:39:44;;;;;;;3.47;1.13;;;27.20;51.40;;;;;;5032869;28;20116;-62
2022/08/03 11:42:36;;;;;;;4.68;1.50;;;27.30;51.10;;;;;;5037518;28;20739;-61
2022/08/03 11:45:08;;;;;;;6.43;1.58;;;27.40;51.00;;;;;;5031996;28;20456;-58
2022/08/03 11:47:37;;;;;;;3.63;1.38;;;27.60;50.90;;;;;;5036728;28;20468;-61
2022/08/03 11:50:03;;;;;;;5.93;1.30;;;27.70;50.70;;;;;;5037786;28;20033;-57
2022/08/03 11:52:37;;;;;;;4.00;1.50;;;27.70;50.50;;;;;;5037793;28;20056;-58
2022/08/03 11:55:08;;;;;;;8.25;1.45;;;27.80;50.50;;;;;;5036563;28;20033;-57
2022/08/03 11:57:34;;;;;;;4.25;1.23;;;27.90;50.40;;;;;;5031913;28;20128;-56
2022/08/03 12:00:01;;;;;;;7.47;1.73;;;27.90;50.30;;;;;;5034796;28;20032;-62
2022/08/03 12:02:26;;;;;;;7.55;1.63;;;27.90;50.00;;;;;;5036198;28;20097;-61
2022/08/03 12:05:00;;;;;;;7.72;1.42;;;27.90;49.60;;;;;;5036468;28;20060;-61
2022/08/03 12:07:28;;;;;;;5.10;1.52;;;27.90;49.20;;;;;;5035352;28;20025;-61
2022/08/03 12:10:09;;;;;;;5.70;1.70;;;27.80;48.70;;;;;;5035939;28;20500;-61
2022/08/03 12:12:36;;;;;;;6.82;1.92;;;27.80;48.20;;;;;;5036024;28;20048;-63
2022/08/03 12:15:03;;;;;;;4.15;1.58;;;27.80;47.90;;;;;;5037120;28;20135;-60
2022/08/03 12:17:39;;;;;;;4.18;1.20;;;27.80;47.60;;;;;;5037002;28;20045;-64
2022/08/03 12:20:08;;;;;;;5.93;1.30;;;27.70;47.20;;;;;;5035137;28;20034;-63
2022/08/03 12:22:39;;;;;;;3.78;1.20;;;27.70;46.80;;;;;;5036616;28;20048;-62
2022/08/03 12:25:06;;;;;;;3.95;1.33;;;27.70;46.50;;;;;;5037066;28;20033;-63
2022/08/03 12:27:32;;;;;;;6.65;2.05;;;27.70;46.30;;;;;;5036494;28;20025;-64
2022/08/03 12:30:00;;;;;;;4.15;1.40;;;27.70;46.00;;;;;;5036823;28;20073;-62
2022/08/03 12:32:29;;;;;;;11.10;1.60;;;27.70;45.70;;;;;;5019338;28;20029;-61
2022/08/03 12:34:59;;;;;;;3.95;1.40;;;27.60;45.50;;;;;;5034447;28;20041;-64
2022/08/03 12:37:26;;;;;;;5.93;1.55;;;27.60;45.70;;;;;;5036147;28;20090;-61
2022/08/03 12:40:02;;;;;;;3.25;1.42;;;27.50;45.70;;;;;;5034066;28;20191;-65
2022/08/03 12:42:33;;;;;;;5.95;1.45;;;27.50;46.00;;;;;;5019885;28;20090;-62
2022/08/03 12:44:59;;;;;;;3.92;1.25;;;27.60;46.30;;;;;;5032756;28;20415;-63
2022/08/03 12:47:25;;;;;;;3.85;1.10;;;27.60;46.30;;;;;;5036288;28;20116;-59
2022/08/03 12:49:52;;;;;;;3.28;1.10;;;27.70;46.30;;;;;;5036012;28;20029;-59
2022/08/03 12:52:20;;;;;;;3.92;1.30;;;27.80;46.30;;;;;;5032471;28;20056;-58
2022/08/03 12:54:57;;;;;;;3.63;1.50;;;27.80;46.20;;;;;;5035907;28;20128;-61
2022/08/03 12:57:24;;;;;;;3.10;1.27;;;27.90;46.10;;;;;;5016165;28;20449;-59
2022/08/03 12:59:49;;;;;;;2.65;0.80;;;28.00;46.10;;;;;;5016341;28;20029;-57
2022/08/03 13:02:19;;;;;;;4.05;1.23;;;28.00;46.10;;;;;;5035549;28;20025;-60